createdAt,value
2019-02-17T00:00:52.421Z,102120.45
2019-02-17T00:03:21.461Z,102131.52
2019-02-17T00:05:50.484Z,102124.58
2019-02-17T00:08:19.928Z,102121.92
2019-02-17T00:10:48.956Z,102118.14
2019-02-17T00:13:17.983Z,102113.62
2019-02-17T00:15:47.317Z,102114.44
2019-02-17T00:18:16.367Z,102114.05
2019-02-17T00:20:45.478Z,102114.36
2019-02-17T00:23:14.811Z,102109.84
2019-02-17T00:25:44.167Z,102114.39
2019-02-17T00:28:13.188Z,102111.10
2019-02-17T00:30:42.549Z,102103.33
2019-02-17T00:33:11.586Z,102109.98
2019-02-17T00:35:41.025Z,102100.33
2019-02-17T00:38:10.392Z,102107.75
2019-02-17T00:40:39.403Z,102103.82
2019-02-17T00:43:08.505Z,102100.42
2019-02-17T00:45:37.516Z,102096.16
2019-02-17T00:48:06.642Z,102096.30
2019-02-17T00:50:36.566Z,102089.47
2019-02-17T00:53:06.287Z,102086.56
2019-02-17T00:55:35.591Z,102083.42
2019-02-17T00:58:04.852Z,102080.77
2019-02-17T01:00:34.216Z,102084.16
2019-02-17T01:03:03.276Z,102082.58
2019-02-17T01:05:32.620Z,102079.05
2019-02-17T01:08:01.687Z,102080.38
2019-02-17T01:10:31.365Z,102073.97
2019-02-17T01:13:00.356Z,102073.38
2019-02-17T01:15:30.289Z,102071.52
2019-02-17T01:17:59.644Z,102066.06
2019-02-17T01:20:28.793Z,102063.23
2019-02-17T01:22:57.842Z,102063.87
2019-02-17T01:25:27.000Z,102062.25
2019-02-17T01:27:56.045Z,102064.27
2019-02-17T01:30:25.334Z,102062.08
2019-02-17T01:32:54.340Z,102058.14
2019-02-17T01:35:23.395Z,102061.52
2019-02-17T01:37:52.415Z,102054.28
2019-02-17T01:40:21.507Z,102049.95
2019-02-17T01:42:50.549Z,102060.41
2019-02-17T01:45:19.566Z,102053.87
2019-02-17T01:47:48.994Z,102051.87
2019-02-17T01:50:17.986Z,102052.84
2019-02-17T01:52:47.390Z,102053.73
2019-02-17T01:55:16.824Z,102058.66
2019-02-17T01:57:45.894Z,102051.41
2019-02-17T02:00:15.161Z,102056.89
2019-02-17T02:02:44.495Z,102044.02
2019-02-17T02:05:13.806Z,102046.57
2019-02-17T02:07:42.830Z,102040.67
2019-02-17T02:10:11.967Z,102033.25
2019-02-17T02:12:41.321Z,102031.52
2019-02-17T02:15:10.615Z,102031.30
2019-02-17T02:17:40.023Z,102025.45
2019-02-17T02:20:10.285Z,102025.84
2019-02-17T02:22:39.509Z,102025.19
2019-02-17T02:25:08.523Z,102024.02
2019-02-17T02:27:37.632Z,102017.84
2019-02-17T02:30:08.275Z,102013.08
2019-02-17T02:32:37.546Z,102012.84
2019-02-17T02:35:07.000Z,102013.20
2019-02-17T02:37:37.054Z,102010.34
2019-02-17T02:40:06.561Z,102011.62
2019-02-17T02:42:35.601Z,102008.53
2019-02-17T02:45:05.524Z,102005.48
2019-02-17T02:47:35.025Z,102009.71
2019-02-17T02:50:04.435Z,102004.19
2019-02-17T02:52:33.444Z,101999.63
2019-02-17T02:55:02.484Z,102004.60
2019-02-17T02:57:31.543Z,102005.09
2019-02-17T03:00:00.982Z,102001.01
2019-02-17T03:02:30.098Z,101998.80
2019-02-17T03:04:59.482Z,101997.16
2019-02-17T03:07:28.846Z,101988.66
2019-02-17T03:09:58.167Z,101986.41
2019-02-17T03:12:27.260Z,101981.20
2019-02-17T03:14:56.581Z,101976.86
2019-02-17T03:17:26.287Z,101971.57
2019-02-17T03:19:55.287Z,101974.97
2019-02-17T03:22:24.405Z,101972.47
2019-02-17T03:24:53.788Z,101968.33
2019-02-17T03:27:22.883Z,101967.05
2019-02-17T03:30:04.086Z,101961.69
2019-02-17T03:32:23.474Z,101956.68
2019-02-17T03:34:52.563Z,101956.72
2019-02-17T03:37:21.564Z,101955.83
2019-02-17T03:39:50.814Z,101953.80
2019-02-17T03:42:19.838Z,101948.33
2019-02-17T03:44:48.919Z,101946.66
2019-02-17T03:47:17.972Z,101952.89
2019-02-17T03:49:47.416Z,101953.28
2019-02-17T03:52:16.433Z,101949.11
2019-02-17T03:54:45.463Z,101941.86
2019-02-17T03:57:14.457Z,101936.67
2019-02-17T03:59:44.614Z,101939.88
2019-02-17T04:02:13.747Z,101937.95
2019-02-17T04:04:42.776Z,101928.03
2019-02-17T04:07:11.839Z,101927.23
2019-02-17T04:09:41.367Z,101928.77
2019-02-17T04:12:10.370Z,101921.43
2019-02-17T04:14:39.925Z,101917.30
2019-02-17T04:17:08.940Z,101916.69
2019-02-17T04:19:38.304Z,101920.60
2019-02-17T04:22:07.308Z,101908.94
2019-02-17T04:24:36.465Z,101907.16
2019-02-17T04:27:05.491Z,101902.92
2019-02-17T04:29:35.188Z,101899.14
2019-02-17T04:32:04.207Z,101906.67
2019-02-17T04:34:33.557Z,101905.34
2019-02-17T04:37:02.500Z,101907.38
2019-02-17T04:39:31.531Z,101901.81
2019-02-17T04:42:00.551Z,101905.73
2019-02-17T04:44:29.556Z,101902.73
2019-02-17T04:46:58.589Z,101900.96
2019-02-17T04:49:27.636Z,101900.77
2019-02-17T04:51:56.668Z,101897.02
2019-02-17T04:54:26.052Z,101895.78
2019-02-17T04:56:55.461Z,101887.80
2019-02-17T04:59:24.578Z,101889.64
2019-02-17T05:01:53.624Z,101891.22
2019-02-17T05:04:22.731Z,101891.02
2019-02-17T05:06:51.860Z,101886.08
2019-02-17T05:09:20.981Z,101888.53
2019-02-17T05:11:50.618Z,101885.88
2019-02-17T05:14:19.987Z,101885.88
2019-02-17T05:16:49.350Z,101879.89
2019-02-17T05:19:18.759Z,101875.82
2019-02-17T05:21:49.385Z,101870.12
2019-02-17T05:24:18.885Z,101868.36
2019-02-17T05:26:47.882Z,101863.02
2019-02-17T05:29:16.940Z,101859.77
2019-02-17T05:31:45.966Z,101861.15
2019-02-17T05:34:15.078Z,101855.48
2019-02-17T05:36:44.848Z,101849.43
2019-02-17T05:39:14.267Z,101847.73
2019-02-17T05:41:43.289Z,101851.39
2019-02-17T05:44:12.390Z,101852.98
2019-02-17T05:46:41.509Z,101844.14
2019-02-17T05:49:10.535Z,101845.72
2019-02-17T05:51:39.869Z,101844.70
2019-02-17T05:54:08.913Z,101842.28
2019-02-17T05:56:37.987Z,101840.69
2019-02-17T05:59:07.079Z,101841.19
2019-02-17T06:01:36.152Z,101840.96
2019-02-17T06:04:05.550Z,101833.28
2019-02-17T06:06:34.989Z,101839.47
2019-02-17T06:09:05.311Z,101832.20
2019-02-17T06:11:34.491Z,101839.84
2019-02-17T06:14:03.976Z,101835.73
2019-02-17T06:16:33.048Z,101836.25
2019-02-17T06:19:02.297Z,101833.70
2019-02-17T06:21:31.945Z,101835.47
2019-02-17T06:24:01.318Z,101836.94
2019-02-17T06:26:30.364Z,101832.88
2019-02-17T06:28:59.685Z,101837.33
2019-02-17T06:31:28.911Z,101835.55
2019-02-17T06:33:58.881Z,101840.08
2019-02-17T06:36:27.917Z,101835.84
2019-02-17T06:38:56.951Z,101836.97
2019-02-17T06:41:26.301Z,101834.47
2019-02-17T06:43:55.624Z,101838.20
2019-02-17T06:46:28.751Z,101834.37
2019-02-17T06:48:57.853Z,101832.77
2019-02-17T06:51:27.182Z,101828.73
2019-02-17T06:53:56.253Z,101829.90
2019-02-17T06:56:50.089Z,101830.70
2019-02-17T06:59:19.143Z,101830.55
2019-02-17T07:01:48.153Z,101833.94
2019-02-17T07:04:17.792Z,101819.73
2019-02-17T07:06:57.627Z,101820.03
2019-02-17T07:09:26.733Z,101829.55
2019-02-17T07:11:56.817Z,101829.37
2019-02-17T07:14:26.526Z,101823.23
2019-02-17T07:16:55.591Z,101829.77
2019-02-17T07:19:25.038Z,101823.13
2019-02-17T07:21:54.068Z,101824.45
2019-02-17T07:24:23.087Z,101824.06
2019-02-17T07:26:52.449Z,101822.92
2019-02-17T07:29:21.866Z,101825.69
2019-02-17T07:31:50.973Z,101822.30
2019-02-17T07:34:20.548Z,101819.98
2019-02-17T07:36:49.654Z,101821.84
2019-02-17T07:39:18.918Z,101820.81
2019-02-17T07:41:47.952Z,101821.48
2019-02-17T07:44:16.984Z,101821.94
2019-02-17T07:46:46.329Z,101823.58
2019-02-17T07:49:15.694Z,101825.04
2019-02-17T07:51:44.734Z,101824.83
2019-02-17T07:54:14.102Z,101827.41
2019-02-17T07:56:43.178Z,101822.47
2019-02-17T07:59:12.222Z,101821.42
2019-02-17T08:01:45.332Z,101820.77
2019-02-17T08:04:12.499Z,101819.73
2019-02-17T08:06:41.504Z,101820.14
2019-02-17T08:09:10.526Z,101822.34
2019-02-17T08:11:39.555Z,101810.50
2019-02-17T08:14:08.689Z,101812.52
2019-02-17T08:16:37.708Z,101815.50
2019-02-17T08:19:06.758Z,101818.89
2019-02-17T08:21:35.807Z,101823.30
2019-02-17T08:24:04.822Z,101824.75
2019-02-17T08:26:34.283Z,101824.64
2019-02-17T08:29:03.412Z,101822.97
2019-02-17T08:31:32.646Z,101827.56
2019-02-17T08:34:01.982Z,101826.14
2019-02-17T08:36:31.285Z,101827.95
2019-02-17T08:39:00.443Z,101827.44
2019-02-17T08:41:29.589Z,101820.29
2019-02-17T08:44:00.860Z,101806.94
2019-02-17T08:46:29.392Z,101803.75
2019-02-17T08:48:58.568Z,101809.87
2019-02-17T08:51:27.598Z,101809.20
2019-02-17T08:53:56.639Z,101811.70
2019-02-17T08:56:25.698Z,101804.55
2019-02-17T08:58:58.066Z,101802.84
2019-02-17T09:01:28.731Z,101799.06
2019-02-17T09:03:58.262Z,101794.45
2019-02-17T09:06:27.483Z,101792.25
2019-02-17T09:08:59.633Z,101797.92
2019-02-17T09:11:29.017Z,101800.59
2019-02-17T09:13:58.114Z,101798.47
2019-02-17T09:16:27.171Z,101785.63
2019-02-17T09:18:56.281Z,101779.69
2019-02-17T09:21:25.295Z,101786.11
2019-02-17T09:23:55.987Z,101786.66
2019-02-17T09:26:25.314Z,101786.22
2019-02-17T09:28:54.414Z,101784.63
2019-02-17T09:31:23.449Z,101771.81
2019-02-17T09:33:53.384Z,101779.73
2019-02-17T09:36:22.745Z,101766.02
2019-02-17T09:38:51.826Z,101775.15
2019-02-17T09:41:20.844Z,101774.36
2019-02-17T09:43:49.873Z,101770.81
2019-02-17T09:46:18.901Z,101762.75
2019-02-17T09:48:47.964Z,101770.81
2019-02-17T09:51:17.664Z,101764.80
2019-02-17T09:53:46.672Z,101763.36
2019-02-17T09:56:15.709Z,101763.30
2019-02-17T09:58:44.744Z,101758.70
2019-02-17T10:01:13.751Z,101753.20
2019-02-17T10:03:42.797Z,101751.57
2019-02-17T10:06:12.308Z,101755.22
2019-02-17T10:08:42.055Z,101750.61
2019-02-17T10:11:11.149Z,101744.72
2019-02-17T10:13:40.172Z,101752.56
2019-02-17T10:16:09.216Z,101745.14
2019-02-17T10:18:38.266Z,101745.73
2019-02-17T10:21:07.343Z,101744.73
2019-02-17T10:23:37.112Z,101748.17
2019-02-17T10:26:06.138Z,101748.67
2019-02-17T10:28:42.103Z,101755.29
2019-02-17T10:31:05.963Z,101755.16
2019-02-17T10:33:35.022Z,101745.52
2019-02-17T10:36:04.189Z,101736.73
2019-02-17T10:38:33.257Z,101746.22
2019-02-17T10:41:02.354Z,101737.29
2019-02-17T10:43:31.752Z,101736.83
2019-02-17T10:46:01.117Z,101734.12
2019-02-17T10:48:30.201Z,101735.03
2019-02-17T10:50:59.609Z,101737.63
2019-02-17T10:53:29.419Z,101734.11
2019-02-17T10:55:58.481Z,101730.81
2019-02-17T10:58:27.517Z,101732.74
2019-02-17T11:00:56.520Z,101713.71
2019-02-17T11:03:25.599Z,101717.47
2019-02-17T11:05:54.959Z,101717.94
2019-02-17T11:08:24.075Z,101718.95
2019-02-17T11:10:53.087Z,101717.48
2019-02-17T11:13:22.157Z,101715.55
2019-02-17T11:15:51.164Z,101706.33
2019-02-17T11:18:20.498Z,101707.50
2019-02-17T11:20:49.819Z,101692.90
2019-02-17T11:23:18.851Z,101697.36
2019-02-17T11:25:47.976Z,101696.56
2019-02-17T11:28:17.289Z,101691.30
2019-02-17T11:30:46.335Z,101684.46
2019-02-17T11:33:15.689Z,101680.31
2019-02-17T11:35:44.713Z,101678.45
2019-02-17T11:38:13.738Z,101674.91
2019-02-17T11:40:42.796Z,101679.00
2019-02-17T11:43:12.113Z,101678.20
2019-02-17T11:45:41.499Z,101676.72
2019-02-17T11:48:10.543Z,101691.66
2019-02-17T11:50:39.857Z,101692.68
2019-02-17T11:53:09.213Z,101684.96
2019-02-17T11:55:38.240Z,101677.91
2019-02-17T11:58:07.829Z,101686.53
2019-02-17T12:00:36.854Z,101695.09
2019-02-17T12:03:08.234Z,101696.05
2019-02-17T12:05:36.733Z,101682.27
2019-02-17T12:08:05.817Z,101676.53
2019-02-17T12:10:34.887Z,101685.64
2019-02-17T12:13:04.163Z,101674.80
2019-02-17T12:15:33.196Z,101669.02
2019-02-17T12:18:02.226Z,101661.35
2019-02-17T12:20:46.811Z,101652.67
2019-02-17T12:23:19.646Z,101651.60
2019-02-17T12:25:55.932Z,101655.75
2019-02-17T12:28:44.167Z,101648.30
2019-02-17T12:31:18.251Z,101639.64
2019-02-17T12:33:47.285Z,101633.69
2019-02-17T12:36:16.328Z,101629.78
2019-02-17T12:38:45.385Z,101628.99
2019-02-17T12:41:14.593Z,101626.75
2019-02-17T12:43:43.895Z,101628.81
2019-02-17T12:46:13.284Z,101629.02
2019-02-17T12:48:42.389Z,101626.41
2019-02-17T12:51:11.711Z,101631.60
2019-02-17T12:53:41.035Z,101628.73
2019-02-17T12:56:10.073Z,101631.12
2019-02-17T12:58:39.121Z,101625.91
2019-02-17T13:01:08.509Z,101624.52
2019-02-17T13:03:37.577Z,101617.22
2019-02-17T13:06:06.693Z,101613.73
2019-02-17T13:08:35.781Z,101620.36
2019-02-17T13:11:04.944Z,101601.94
2019-02-17T13:13:34.003Z,101600.33
2019-02-17T13:16:03.038Z,101606.34
2019-02-17T13:18:32.021Z,101603.84
2019-02-17T13:21:01.067Z,101597.20
2019-02-17T13:23:30.169Z,101599.92
2019-02-17T13:25:59.293Z,101589.43
2019-02-17T13:28:28.323Z,101591.66
2019-02-17T13:30:57.445Z,101584.64
2019-02-17T13:33:26.752Z,101591.62
2019-02-17T13:35:55.869Z,101579.55
2019-02-17T13:38:24.918Z,101575.40
2019-02-17T13:40:54.321Z,101589.83
2019-02-17T13:43:23.353Z,101584.09
2019-02-17T13:45:52.620Z,101581.06
2019-02-17T13:48:25.433Z,101577.09
2019-02-17T13:50:54.526Z,101571.48
2019-02-17T13:53:23.642Z,101570.44
2019-02-17T13:55:52.918Z,101566.78
2019-02-17T13:58:22.223Z,101567.12
2019-02-17T14:00:51.283Z,101575.59
2019-02-17T14:03:20.602Z,101572.06
2019-02-17T14:05:49.654Z,101568.28
2019-02-17T14:08:18.697Z,101568.46
2019-02-17T14:10:48.043Z,101571.40
2019-02-17T14:13:17.061Z,101564.39
2019-02-17T14:15:46.145Z,101558.28
2019-02-17T14:18:15.208Z,101558.83
2019-02-17T14:20:44.563Z,101555.44
2019-02-17T14:23:13.859Z,101565.48
2019-02-17T14:25:42.903Z,101569.77
2019-02-17T14:28:11.937Z,101566.57
2019-02-17T14:30:40.941Z,101568.38
2019-02-17T14:33:10.101Z,101556.13
2019-02-17T14:35:39.453Z,101549.61
2019-02-17T14:38:08.898Z,101552.63
2019-02-17T14:40:37.943Z,101546.45
2019-02-17T14:43:07.383Z,101564.70
2019-02-17T14:45:36.392Z,101558.08
2019-02-17T14:48:05.728Z,101557.22
2019-02-17T14:50:34.748Z,101566.45
2019-02-17T14:53:03.804Z,101566.88
2019-02-17T14:55:33.477Z,101555.99
2019-02-17T14:58:05.535Z,101561.47
2019-02-17T15:00:33.855Z,101558.73
2019-02-17T15:03:02.892Z,101564.44
2019-02-17T15:05:31.943Z,101565.53
2019-02-17T15:08:01.033Z,101575.08
2019-02-17T15:10:30.104Z,101574.50
2019-02-17T15:13:01.869Z,101572.09
2019-02-17T15:15:32.505Z,101562.81
2019-02-17T15:18:01.625Z,101565.81
2019-02-17T15:20:30.924Z,101567.73
2019-02-17T15:23:00.065Z,101571.58
2019-02-17T15:25:33.907Z,101563.08
2019-02-17T15:28:06.465Z,101575.30
2019-02-17T15:30:36.090Z,101572.59
2019-02-17T15:33:09.021Z,101571.03
2019-02-17T15:35:38.424Z,101579.29
2019-02-17T15:38:08.562Z,101578.60
2019-02-17T15:40:37.605Z,101579.09
2019-02-17T15:43:06.699Z,101574.20
2019-02-17T15:45:35.707Z,101569.06
2019-02-17T15:48:05.020Z,101570.30
2019-02-17T15:50:34.111Z,101574.31
2019-02-17T15:53:03.134Z,101575.09
2019-02-17T15:55:32.244Z,101572.68
2019-02-17T15:58:01.262Z,101566.28
2019-02-17T16:00:30.268Z,101567.41
2019-02-17T16:02:59.302Z,101564.50
2019-02-17T16:05:28.619Z,101569.41
2019-02-17T16:07:57.639Z,101558.28
2019-02-17T16:10:27.032Z,101569.23
2019-02-17T16:12:56.418Z,101562.22
2019-02-17T16:15:26.632Z,101568.56
2019-02-17T16:17:55.675Z,101574.05
2019-02-17T16:20:24.998Z,101573.09
2019-02-17T16:22:54.005Z,101576.34
2019-02-17T16:25:23.087Z,101574.23
2019-02-17T16:27:52.463Z,101572.64
2019-02-17T16:30:21.516Z,101577.11
2019-02-17T16:32:50.644Z,101584.28
2019-02-17T16:35:19.918Z,101581.03
2019-02-17T16:37:48.928Z,101588.27
2019-02-17T16:40:17.990Z,101584.75
2019-02-17T16:42:47.019Z,101583.47
2019-02-17T16:45:16.797Z,101581.02
2019-02-17T16:47:46.145Z,101584.73
2019-02-17T16:50:17.755Z,101589.75
2019-02-17T16:52:46.759Z,101585.66
2019-02-17T16:55:16.422Z,101590.30
2019-02-17T16:57:45.546Z,101593.61
2019-02-17T17:00:18.327Z,101597.85
2019-02-17T17:02:47.403Z,101589.33
2019-02-17T17:05:16.471Z,101589.33
2019-02-17T17:07:45.901Z,101606.96
2019-02-17T17:10:15.451Z,101610.20
2019-02-17T17:12:44.503Z,101620.28
2019-02-17T17:15:15.321Z,101616.34
2019-02-17T17:17:44.744Z,101620.36
2019-02-17T17:20:14.140Z,101622.00
2019-02-17T17:22:43.597Z,101612.86
2019-02-17T17:25:12.756Z,101617.75
2019-02-17T17:27:41.817Z,101618.25
2019-02-17T17:30:12.220Z,101626.91
2019-02-17T17:32:41.269Z,101629.87
2019-02-17T17:35:10.657Z,101626.33
2019-02-17T17:37:39.822Z,101623.11
2019-02-17T17:40:10.925Z,101629.94
2019-02-17T17:42:40.273Z,101631.92
2019-02-17T17:45:11.855Z,101630.58
2019-02-17T17:47:40.930Z,101636.70
2019-02-17T17:50:11.513Z,101634.77
2019-02-17T17:52:40.676Z,101633.06
2019-02-17T17:55:09.819Z,101640.45
2019-02-17T17:57:39.165Z,101641.39
2019-02-17T18:00:10.343Z,101649.36
2019-02-17T18:02:39.490Z,101650.02
2019-02-17T18:05:09.782Z,101651.61
2019-02-17T18:07:39.352Z,101649.80
2019-02-17T18:10:10.968Z,101647.94
2019-02-17T18:12:40.398Z,101656.55
2019-02-17T18:15:11.062Z,101656.55
2019-02-17T18:17:40.419Z,101655.58
2019-02-17T18:20:10.649Z,101663.73
2019-02-17T18:22:39.721Z,101657.72
2019-02-17T18:25:09.412Z,101660.54
2019-02-17T18:27:38.543Z,101666.36
2019-02-17T18:30:09.393Z,101662.99
2019-02-17T18:32:38.873Z,101664.91
2019-02-17T18:35:08.472Z,101666.22
2019-02-17T18:37:38.310Z,101666.31
2019-02-17T18:40:08.407Z,101667.77
2019-02-17T18:42:37.417Z,101672.89
2019-02-17T18:45:07.488Z,101675.98
2019-02-17T18:47:37.070Z,101681.64
2019-02-17T18:50:07.581Z,101677.63
2019-02-17T18:52:36.667Z,101686.20
2019-02-17T18:55:05.940Z,101686.02
2019-02-17T18:57:35.188Z,101686.31
2019-02-17T19:00:04.836Z,101683.76
2019-02-17T19:02:33.874Z,101680.53
2019-02-17T19:05:02.948Z,101688.06
2019-02-17T19:07:32.029Z,101694.72
2019-02-17T19:10:01.331Z,101685.86
2019-02-17T19:12:30.409Z,101680.52
2019-02-17T19:14:59.492Z,101685.59
2019-02-17T19:17:28.870Z,101685.03
2019-02-17T19:19:57.943Z,101678.14
2019-02-17T19:22:26.959Z,101686.37
2019-02-17T19:24:56.519Z,101681.36
2019-02-17T19:27:25.562Z,101685.08
2019-02-17T19:29:54.925Z,101685.22
2019-02-17T19:32:23.948Z,101685.39
2019-02-17T19:34:53.064Z,101685.26
2019-02-17T19:37:22.110Z,101688.44
2019-02-17T19:39:51.641Z,101685.45
2019-02-17T19:42:20.756Z,101686.31
2019-02-17T19:44:49.821Z,101691.23
2019-02-17T19:47:19.119Z,101686.64
2019-02-17T19:49:48.151Z,101692.99
2019-02-17T19:52:17.278Z,101689.11
2019-02-17T19:54:46.306Z,101688.41
2019-02-17T19:57:15.316Z,101683.48
2019-02-17T19:59:44.381Z,101681.13
2019-02-17T20:02:13.452Z,101679.50
2019-02-17T20:04:45.464Z,101686.11
2019-02-17T20:07:14.555Z,101684.47
2019-02-17T20:09:43.974Z,101681.80
2019-02-17T20:12:13.251Z,101687.48
2019-02-17T20:14:42.269Z,101688.95
2019-02-17T20:17:11.285Z,101689.03
2019-02-17T20:19:40.581Z,101684.63
2019-02-17T20:22:09.622Z,101688.84
2019-02-17T20:24:38.684Z,101692.41
2019-02-17T20:27:07.755Z,101689.62
2019-02-17T20:29:37.595Z,101694.17
2019-02-17T20:32:07.003Z,101686.56
2019-02-17T20:34:36.082Z,101694.95
2019-02-17T20:37:05.451Z,101697.48
2019-02-17T20:39:34.553Z,101707.87
2019-02-17T20:42:03.637Z,101705.73
2019-02-17T20:44:32.751Z,101708.05
2019-02-17T20:47:01.982Z,101707.50
2019-02-17T20:49:32.875Z,101714.55
2019-02-17T20:52:02.041Z,101710.34
2019-02-17T20:54:31.241Z,101710.34
2019-02-17T20:57:00.286Z,101712.39
2019-02-17T20:59:29.657Z,101708.72
2019-02-17T21:01:58.710Z,101708.27
2019-02-17T21:04:27.761Z,101705.09
2019-02-17T21:06:56.968Z,101708.67
2019-02-17T21:09:26.568Z,101704.91
2019-02-17T21:11:55.992Z,101697.20
2019-02-17T21:14:25.330Z,101704.04
2019-02-17T21:16:54.336Z,101700.21
2019-02-17T21:19:23.988Z,101703.67
2019-02-17T21:21:53.456Z,101700.27
2019-02-17T21:24:23.002Z,101696.89
2019-02-17T21:26:52.102Z,101693.42
2019-02-17T21:29:21.296Z,101686.68
2019-02-17T21:31:50.313Z,101689.75
2019-02-17T21:34:19.732Z,101694.13
2019-02-17T21:36:48.856Z,101697.55
2019-02-17T21:39:18.165Z,101684.22
2019-02-17T21:41:47.938Z,101687.87
2019-02-17T21:44:16.976Z,101685.45
2019-02-17T21:46:46.070Z,101678.88
2019-02-17T21:49:15.126Z,101677.64
2019-02-17T21:51:44.208Z,101680.30
2019-02-17T21:54:13.304Z,101679.59
2019-02-17T21:56:42.439Z,101679.12
2019-02-17T21:59:11.850Z,101678.88
2019-02-17T22:01:40.907Z,101673.63
2019-02-17T22:04:09.902Z,101679.81
2019-02-17T22:06:39.003Z,101671.58
2019-02-17T22:09:08.010Z,101680.63
2019-02-17T22:11:37.166Z,101681.59
2019-02-17T22:14:06.488Z,101682.33
2019-02-17T22:16:35.983Z,101673.92
2019-02-17T22:19:05.414Z,101677.77
2019-02-17T22:21:34.819Z,101674.02
2019-02-17T22:24:03.888Z,101668.33
2019-02-17T22:26:33.099Z,101666.88
2019-02-17T22:29:02.728Z,101664.86
2019-02-17T22:31:31.732Z,101671.30
2019-02-17T22:34:01.113Z,101664.55
2019-02-17T22:36:30.516Z,101668.45
2019-02-17T22:39:00.224Z,101667.95
2019-02-17T22:41:29.222Z,101665.95
2019-02-17T22:43:58.535Z,101671.06
2019-02-17T22:46:27.573Z,101672.91
2019-02-17T22:48:57.381Z,101665.08
2019-02-17T22:51:26.431Z,101667.13
2019-02-17T22:53:59.007Z,101664.13
2019-02-17T22:56:28.514Z,101669.59
2019-02-17T22:58:57.756Z,101663.80
2019-02-17T23:01:30.806Z,101670.70
2019-02-17T23:04:00.608Z,101664.91
2019-02-17T23:06:29.665Z,101666.84
2019-02-17T23:08:58.798Z,101663.69
2019-02-17T23:11:28.107Z,101661.17
2019-02-17T23:13:58.023Z,101666.61
2019-02-17T23:16:27.142Z,101664.66
2019-02-17T23:18:56.556Z,101666.72
2019-02-17T23:21:25.581Z,101673.59
2019-02-17T23:23:54.631Z,101669.16
2019-02-17T23:26:23.651Z,101671.44
2019-02-17T23:28:52.700Z,101673.80
2019-02-17T23:31:22.241Z,101671.38
2019-02-17T23:33:51.247Z,101669.93
2019-02-17T23:36:20.720Z,101668.11
2019-02-17T23:38:50.173Z,101672.31
2019-02-17T23:41:19.275Z,101666.38
2019-02-17T23:43:48.640Z,101673.87
2019-02-17T23:46:18.014Z,101664.23
2019-02-17T23:48:47.645Z,101666.44
2019-02-17T23:51:16.679Z,101666.06
2019-02-17T23:53:46.102Z,101664.99
2019-02-17T23:56:15.242Z,101658.02
2019-02-17T23:58:44.259Z,101658.26
